createdAt,value
2023-07-06T00:00:09.228Z,21.32
2023-07-06T00:03:15.828Z,21.38
2023-07-06T00:06:18.369Z,21.36
2023-07-06T00:09:21.228Z,21.36
2023-07-06T00:12:24.556Z,21.34
2023-07-06T00:15:28.608Z,21.14
2023-07-06T00:18:30.899Z,21.25
2023-07-06T00:21:33.460Z,21.24
2023-07-06T00:24:35.564Z,21.30
2023-07-06T00:27:38.825Z,21.28
2023-07-06T00:30:47.879Z,21.30
2023-07-06T00:33:53.404Z,21.26
2023-07-06T00:36:55.426Z,21.13
2023-07-06T00:39:57.394Z,21.22
2023-07-06T00:43:00.861Z,21.19
2023-07-06T00:46:10.740Z,21.15
2023-07-06T00:49:18.279Z,21.10
2023-07-06T00:52:21.882Z,21.09
2023-07-06T00:55:30.912Z,21.07
2023-07-06T00:58:38.299Z,20.92
2023-07-06T01:01:43.234Z,20.74
2023-07-06T01:04:45.630Z,20.76
2023-07-06T01:07:49.819Z,20.66
2023-07-06T01:10:54.037Z,20.53
2023-07-06T01:13:58.254Z,20.52
2023-07-06T01:17:07.233Z,20.38
2023-07-06T01:20:22.319Z,20.40
2023-07-06T01:23:46.342Z,20.17
2023-07-06T01:27:08.498Z,20.20
2023-07-06T01:30:31.166Z,20.13
2023-07-06T01:33:41.444Z,20.09
2023-07-06T01:36:48.081Z,19.98
2023-07-06T01:39:51.959Z,19.91
2023-07-06T01:42:53.842Z,19.77
2023-07-06T01:45:56.560Z,19.74
2023-07-06T01:48:59.960Z,19.84
2023-07-06T01:52:10.389Z,19.83
2023-07-06T01:55:22.370Z,19.80
2023-07-06T01:58:33.470Z,20.02
2023-07-06T02:01:42.314Z,20.03
2023-07-06T02:04:45.801Z,20.02
2023-07-06T02:07:50.675Z,20.03
2023-07-06T02:10:54.145Z,19.99
2023-07-06T02:13:56.118Z,20.00
2023-07-06T02:16:58.235Z,19.98
2023-07-06T02:20:01.643Z,19.86
2023-07-06T02:23:04.165Z,19.85
2023-07-06T02:26:06.043Z,19.76
2023-07-06T02:29:07.879Z,19.53
2023-07-06T02:32:11.062Z,19.54
2023-07-06T02:35:14.411Z,19.55
2023-07-06T02:38:19.295Z,19.56
2023-07-06T02:41:21.099Z,19.56
2023-07-06T02:44:23.189Z,19.64
2023-07-06T02:47:25.253Z,19.72
2023-07-06T02:50:28.971Z,19.80
2023-07-06T02:53:31.089Z,19.79
2023-07-06T02:56:33.544Z,19.81
2023-07-06T02:59:36.130Z,19.85
2023-07-06T03:02:37.997Z,19.82
2023-07-06T03:05:44.974Z,19.68
2023-07-06T03:08:48.768Z,19.74
2023-07-06T03:11:51.122Z,19.76
2023-07-06T03:14:52.915Z,19.59
2023-07-06T03:17:54.796Z,19.61
2023-07-06T03:20:58.451Z,19.54
2023-07-06T03:24:00.351Z,19.51
2023-07-06T03:27:03.453Z,19.45
2023-07-06T03:30:08.605Z,19.50
2023-07-06T03:33:10.631Z,19.54
2023-07-06T03:36:14.400Z,19.63
2023-07-06T03:39:16.448Z,19.69
2023-07-06T03:42:18.941Z,19.74
2023-07-06T03:45:21.056Z,19.75
2023-07-06T03:48:23.250Z,19.73
2023-07-06T03:51:26.493Z,19.72
2023-07-06T03:54:28.899Z,19.81
2023-07-06T03:57:31.590Z,19.88
2023-07-06T04:00:35.358Z,19.88
2023-07-06T04:03:38.048Z,19.82
2023-07-06T04:06:42.417Z,20.04
2023-07-06T04:09:45.707Z,20.05
2023-07-06T04:12:48.130Z,20.07
2023-07-06T04:15:50.579Z,20.02
2023-07-06T04:18:53.094Z,20.03
2023-07-06T04:21:58.288Z,20.15
2023-07-06T04:25:00.117Z,20.17
2023-07-06T04:28:05.164Z,20.19
2023-07-06T04:31:06.913Z,20.17
2023-07-06T04:34:08.882Z,20.19
2023-07-06T04:37:12.066Z,20.17
2023-07-06T04:40:18.985Z,20.11
2023-07-06T04:43:22.078Z,20.18
2023-07-06T04:46:23.994Z,20.20
2023-07-06T04:49:27.007Z,20.12
2023-07-06T04:52:31.073Z,20.27
2023-07-06T04:55:33.051Z,20.24
2023-07-06T04:58:35.584Z,20.37
2023-07-06T05:01:37.420Z,20.33
2023-07-06T05:04:41.667Z,20.41
2023-07-06T05:07:44.883Z,20.40
2023-07-06T05:10:52.476Z,20.37
2023-07-06T05:13:54.643Z,20.17
2023-07-06T05:16:56.587Z,20.26
2023-07-06T05:19:59.357Z,20.24
2023-07-06T05:23:04.917Z,20.23
2023-07-06T05:26:07.180Z,20.17
2023-07-06T05:29:09.711Z,20.15
2023-07-06T05:32:11.575Z,20.23
2023-07-06T05:35:14.651Z,20.19
2023-07-06T05:38:17.935Z,20.22
2023-07-06T05:41:19.802Z,20.22
2023-07-06T05:44:21.785Z,20.26
2023-07-06T05:47:23.765Z,20.14
2023-07-06T05:50:25.803Z,20.07
2023-07-06T05:53:29.156Z,20.00
2023-07-06T05:56:32.315Z,19.85
2023-07-06T05:59:34.377Z,19.64
2023-07-06T06:02:37.249Z,19.00
2023-07-06T06:05:41.428Z,18.42
2023-07-06T06:08:45.099Z,18.16
2023-07-06T06:11:48.061Z,18.36
2023-07-06T06:14:52.014Z,18.41
2023-07-06T06:17:54.269Z,18.41
2023-07-06T06:20:59.845Z,18.43
2023-07-06T06:24:09.534Z,18.59
2023-07-06T06:27:12.435Z,18.45
2023-07-06T06:30:16.105Z,18.65
2023-07-06T06:33:19.182Z,18.81
2023-07-06T06:36:23.120Z,19.11
2023-07-06T06:39:26.428Z,19.32
2023-07-06T06:42:29.974Z,19.41
2023-07-06T06:45:33.209Z,19.40
2023-07-06T06:48:35.292Z,19.69
2023-07-06T06:51:37.288Z,19.77
2023-07-06T06:54:41.766Z,19.98
2023-07-06T06:57:44.077Z,20.20
2023-07-06T07:00:46.508Z,20.43
2023-07-06T07:03:48.681Z,20.41
2023-07-06T07:06:51.499Z,20.37
2023-07-06T07:09:55.118Z,20.71
2023-07-06T07:12:58.188Z,20.85
2023-07-06T07:16:00.538Z,21.46
2023-07-06T07:19:05.443Z,21.30
2023-07-06T07:22:08.133Z,21.51
2023-07-06T07:25:11.588Z,21.00
2023-07-06T07:28:17.314Z,20.91
2023-07-06T07:31:20.269Z,20.84
2023-07-06T07:34:22.644Z,20.76
2023-07-06T07:37:24.592Z,20.64
2023-07-06T07:40:28.771Z,20.80
2023-07-06T07:43:35.813Z,21.16
2023-07-06T07:46:38.772Z,21.27
2023-07-06T07:49:42.884Z,21.12
2023-07-06T07:52:45.487Z,21.17
2023-07-06T07:55:48.687Z,21.73
2023-07-06T07:58:50.975Z,21.63
2023-07-06T08:01:53.755Z,21.65
2023-07-06T08:04:58.308Z,22.01
2023-07-06T08:08:01.286Z,22.46
2023-07-06T08:11:06.425Z,22.05
2023-07-06T08:14:12.265Z,22.24
2023-07-06T08:17:15.582Z,22.32
2023-07-06T08:20:51.854Z,22.93
2023-07-06T08:23:48.725Z,23.10
2023-07-06T08:26:52.055Z,22.79
2023-07-06T08:29:54.315Z,22.94
2023-07-06T08:32:56.823Z,23.47
2023-07-06T08:36:02.619Z,23.87
2023-07-06T08:39:07.101Z,24.26
2023-07-06T08:42:11.935Z,24.51
2023-07-06T08:45:18.659Z,23.89
2023-07-06T08:48:26.576Z,23.70
2023-07-06T08:51:36.116Z,23.95
2023-07-06T08:54:44.678Z,23.73
2023-07-06T08:57:48.094Z,23.76
2023-07-06T09:00:50.045Z,24.11
2023-07-06T09:03:57.071Z,24.24
2023-07-06T09:07:01.553Z,24.27
2023-07-06T09:10:23.192Z,24.30
2023-07-06T09:13:29.103Z,24.40
2023-07-06T09:16:35.826Z,24.49
2023-07-06T09:19:40.026Z,24.57
2023-07-06T09:22:42.545Z,24.95
2023-07-06T09:25:46.996Z,24.69
2023-07-06T09:28:53.109Z,24.39
2023-07-06T09:32:10.770Z,24.62
2023-07-06T09:35:21.517Z,24.25
2023-07-06T09:38:25.496Z,23.87
2023-07-06T09:41:30.523Z,23.66
2023-07-06T09:44:33.737Z,23.60
2023-07-06T09:47:36.296Z,23.94
2023-07-06T09:50:44.273Z,23.93
2023-07-06T09:53:50.742Z,23.57
2023-07-06T09:56:52.914Z,23.80
2023-07-06T09:59:56.144Z,23.61
2023-07-06T10:03:02.143Z,23.63
2023-07-06T10:06:18.905Z,23.81
2023-07-06T10:09:26.805Z,23.90
2023-07-06T10:12:39.691Z,24.35
2023-07-06T10:15:51.632Z,24.08
2023-07-06T10:19:00.981Z,24.24
2023-07-06T10:22:12.306Z,24.29
2023-07-06T10:25:20.524Z,24.82
2023-07-06T10:28:27.496Z,24.87
2023-07-06T10:31:35.895Z,25.26
2023-07-06T10:34:42.498Z,25.24
2023-07-06T10:37:45.117Z,24.96
2023-07-06T10:40:51.388Z,25.15
2023-07-06T10:43:57.394Z,25.72
2023-07-06T10:47:00.663Z,26.32
2023-07-06T10:50:24.992Z,25.89
2023-07-06T10:53:36.008Z,26.55
2023-07-06T10:56:42.440Z,26.39
2023-07-06T10:59:49.533Z,26.31
2023-07-06T11:02:57.512Z,26.94
2023-07-06T11:06:07.770Z,26.82
2023-07-06T11:09:15.516Z,26.48
2023-07-06T11:12:20.816Z,26.21
2023-07-06T11:15:26.588Z,26.39
2023-07-06T11:18:36.550Z,26.29
2023-07-06T11:21:44.545Z,26.84
2023-07-06T11:24:50.844Z,26.73
2023-07-06T11:27:58.973Z,26.58
2023-07-06T11:31:09.494Z,26.38
2023-07-06T11:34:32.567Z,26.91
2023-07-06T11:37:58.495Z,26.85
2023-07-06T11:41:13.874Z,26.71
2023-07-06T11:44:47.254Z,26.70
2023-07-06T11:48:05.328Z,27.39
2023-07-06T11:51:10.946Z,26.83
2023-07-06T11:54:31.132Z,27.62
2023-07-06T11:57:46.659Z,27.00
2023-07-06T12:00:55.574Z,26.71
2023-07-06T12:03:59.077Z,26.89
2023-07-06T12:07:24.170Z,27.36
2023-07-06T12:10:26.478Z,27.13
2023-07-06T12:13:30.804Z,26.84
2023-07-06T12:16:40.396Z,26.76
2023-07-06T12:19:43.178Z,27.13
2023-07-06T12:22:54.269Z,26.79
2023-07-06T12:25:57.199Z,27.42
2023-07-06T12:29:01.388Z,27.52
2023-07-06T12:32:09.050Z,27.25
2023-07-06T12:35:13.148Z,28.28
2023-07-06T12:38:20.699Z,28.14
2023-07-06T12:41:22.878Z,27.88
2023-07-06T12:44:28.329Z,27.83
2023-07-06T12:47:34.935Z,27.91
2023-07-06T12:50:41.072Z,28.13
2023-07-06T12:53:45.055Z,27.71
2023-07-06T12:56:57.188Z,28.29
2023-07-06T13:00:11.771Z,28.15
2023-07-06T13:03:14.692Z,28.12
2023-07-06T13:06:17.510Z,28.00
2023-07-06T13:09:22.913Z,28.49
2023-07-06T13:12:32.871Z,28.36
2023-07-06T13:15:39.507Z,28.25
2023-07-06T13:18:42.227Z,29.01
2023-07-06T13:21:44.228Z,28.27
2023-07-06T13:24:48.505Z,28.00
2023-07-06T13:27:50.935Z,27.96
2023-07-06T13:30:54.295Z,27.74
2023-07-06T13:33:57.827Z,28.18
2023-07-06T13:36:59.771Z,28.74
2023-07-06T13:40:05.631Z,28.19
2023-07-06T13:43:14.601Z,28.69
2023-07-06T13:46:18.042Z,28.66
2023-07-06T13:49:20.586Z,27.95
2023-07-06T13:52:22.481Z,27.79
2023-07-06T13:55:29.180Z,27.50
2023-07-06T13:58:31.584Z,27.57
2023-07-06T14:01:33.473Z,27.86
2023-07-06T14:04:35.670Z,27.74
2023-07-06T14:07:37.541Z,27.94
2023-07-06T14:10:40.943Z,27.45
2023-07-06T14:13:45.472Z,27.37
2023-07-06T14:16:48.978Z,27.31
2023-07-06T14:20:02.699Z,26.93
2023-07-06T14:23:06.926Z,27.16
2023-07-06T14:26:10.590Z,27.59
2023-07-06T14:29:12.883Z,27.27
2023-07-06T14:32:16.668Z,27.27
2023-07-06T14:35:19.850Z,27.18
2023-07-06T14:38:22.555Z,26.70
2023-07-06T14:41:26.852Z,26.92
2023-07-06T14:44:29.488Z,27.30
2023-07-06T14:47:31.615Z,27.16
2023-07-06T14:50:35.204Z,26.82
2023-07-06T14:53:38.237Z,26.64
2023-07-06T14:56:41.551Z,26.84
2023-07-06T14:59:44.745Z,26.50
2023-07-06T15:02:50.289Z,26.62
2023-07-06T15:05:54.245Z,26.46
2023-07-06T15:08:56.406Z,26.17
2023-07-06T15:12:00.006Z,26.54
2023-07-06T15:15:01.979Z,26.68
2023-07-06T15:18:04.638Z,26.17
2023-07-06T15:21:08.186Z,26.01
2023-07-06T15:24:10.716Z,25.81
2023-07-06T15:27:15.020Z,25.70
2023-07-06T15:30:17.547Z,25.53
2023-07-06T15:33:19.386Z,25.55
2023-07-06T15:36:21.954Z,25.91
2023-07-06T15:39:25.095Z,26.06
2023-07-06T15:42:28.704Z,26.03
2023-07-06T15:45:30.749Z,25.70
2023-07-06T15:48:33.420Z,25.55
2023-07-06T15:51:35.320Z,25.17
2023-07-06T15:54:37.265Z,25.03
2023-07-06T15:57:40.593Z,25.17
2023-07-06T16:00:42.546Z,25.13
2023-07-06T16:03:45.363Z,24.99
2023-07-06T16:06:47.327Z,25.07
2023-07-06T16:09:49.234Z,24.98
2023-07-06T16:12:52.676Z,25.15
2023-07-06T16:15:54.922Z,25.07
2023-07-06T16:18:57.258Z,24.90
2023-07-06T16:21:59.183Z,25.82
2023-07-06T16:25:01.271Z,25.37
2023-07-06T16:28:04.950Z,25.65
2023-07-06T16:31:07.693Z,25.42
2023-07-06T16:34:09.846Z,25.22
2023-07-06T16:37:11.714Z,25.21
2023-07-06T16:40:14.257Z,25.15
2023-07-06T16:43:17.837Z,24.77
2023-07-06T16:46:20.112Z,24.71
2023-07-06T16:49:21.980Z,24.50
2023-07-06T16:52:24.329Z,24.73
2023-07-06T16:55:27.202Z,24.97
2023-07-06T16:58:31.444Z,24.93
2023-07-06T17:01:35.307Z,24.83
2023-07-06T17:04:37.313Z,25.11
2023-07-06T17:07:39.169Z,24.66
2023-07-06T17:10:41.629Z,24.73
2023-07-06T17:13:45.038Z,24.60
2023-07-06T17:16:47.163Z,24.29
2023-07-06T17:19:49.937Z,24.36
2023-07-06T17:22:51.895Z,24.09
2023-07-06T17:25:54.179Z,24.00
2023-07-06T17:28:57.602Z,24.13
2023-07-06T17:31:59.541Z,23.76
2023-07-06T17:35:02.991Z,23.51
2023-07-06T17:38:05.855Z,23.58
2023-07-06T17:41:09.717Z,23.64
2023-07-06T17:44:14.048Z,23.36
2023-07-06T17:47:16.578Z,23.12
2023-07-06T17:50:19.579Z,23.21
2023-07-06T17:53:22.639Z,23.46
2023-07-06T17:56:25.003Z,23.23
2023-07-06T17:59:30.105Z,23.17
2023-07-06T18:02:32.752Z,22.79
2023-07-06T18:05:35.639Z,22.75
2023-07-06T18:08:38.701Z,22.63
2023-07-06T18:11:41.301Z,22.65
2023-07-06T18:14:45.407Z,22.53
2023-07-06T18:17:49.211Z,22.44
2023-07-06T18:20:51.425Z,22.35
2023-07-06T18:23:55.238Z,22.33
2023-07-06T18:26:57.659Z,22.17
2023-07-06T18:30:01.659Z,22.15
2023-07-06T18:33:07.240Z,21.91
2023-07-06T18:36:09.574Z,21.63
2023-07-06T18:39:12.142Z,22.04
2023-07-06T18:42:14.268Z,21.91
2023-07-06T18:45:28.765Z,21.70
2023-07-06T18:48:39.523Z,21.56
2023-07-06T18:51:42.141Z,21.50
2023-07-06T18:54:44.219Z,21.09
2023-07-06T18:57:46.701Z,21.23
2023-07-06T19:00:50.421Z,21.29
2023-07-06T19:03:52.877Z,21.58
2023-07-06T19:06:55.662Z,21.66
2023-07-06T19:09:58.271Z,21.64
2023-07-06T19:13:01.979Z,21.63
2023-07-06T19:16:06.364Z,21.48
2023-07-06T19:19:09.043Z,21.38
2023-07-06T19:22:11.646Z,21.26
2023-07-06T19:25:14.029Z,21.50
2023-07-06T19:28:16.178Z,21.52
2023-07-06T19:31:20.704Z,21.48
2023-07-06T19:34:23.436Z,21.62
2023-07-06T19:37:26.868Z,21.06
2023-07-06T19:40:29.614Z,21.19
2023-07-06T19:43:32.464Z,20.80
2023-07-06T19:46:36.442Z,21.14
2023-07-06T19:49:39.146Z,20.96
2023-07-06T19:52:42.590Z,20.94
2023-07-06T19:55:45.338Z,20.97
2023-07-06T19:58:47.438Z,20.65
2023-07-06T20:01:52.127Z,21.24
2023-07-06T20:05:00.287Z,21.32
2023-07-06T20:08:03.607Z,21.04
2023-07-06T20:11:06.353Z,21.19
2023-07-06T20:14:09.697Z,21.07
2023-07-06T20:17:15.482Z,21.14
2023-07-06T20:20:17.925Z,21.12
2023-07-06T20:23:21.128Z,21.05
2023-07-06T20:26:23.697Z,21.08
2023-07-06T20:29:26.383Z,21.09
2023-07-06T20:32:30.264Z,21.15
2023-07-06T20:35:32.827Z,21.16
2023-07-06T20:38:36.565Z,21.07
2023-07-06T20:41:39.031Z,21.07
2023-07-06T20:44:41.616Z,21.10
2023-07-06T20:47:45.045Z,20.97
2023-07-06T20:50:47.588Z,20.99
2023-07-06T20:53:52.123Z,21.03
2023-07-06T20:56:54.340Z,20.96
2023-07-06T20:59:56.618Z,20.98
2023-07-06T21:03:01.121Z,20.92
2023-07-06T21:06:04.229Z,20.87
2023-07-06T21:09:06.117Z,20.81
2023-07-06T21:12:08.626Z,20.73
2023-07-06T21:15:11.125Z,20.71
2023-07-06T21:18:14.395Z,20.75
2023-07-06T21:21:16.292Z,20.77
2023-07-06T21:24:19.494Z,20.59
2023-07-06T21:27:21.422Z,20.76
2023-07-06T21:30:25.499Z,20.97
2023-07-06T21:33:28.731Z,21.02
2023-07-06T21:36:32.470Z,21.02
2023-07-06T21:39:34.396Z,20.95
2023-07-06T21:42:36.477Z,20.90
2023-07-06T21:45:38.472Z,20.91
2023-07-06T21:48:43.939Z,20.66
2023-07-06T21:51:46.472Z,20.72
2023-07-06T21:54:48.441Z,20.80
2023-07-06T21:57:50.338Z,20.77
2023-07-06T22:00:52.598Z,20.72
2023-07-06T22:03:56.828Z,20.61
2023-07-06T22:06:58.781Z,20.71
2023-07-06T22:10:01.395Z,20.75
2023-07-06T22:13:03.704Z,20.69
2023-07-06T22:16:05.775Z,20.69
2023-07-06T22:19:10.079Z,20.63
2023-07-06T22:22:11.979Z,20.62
2023-07-06T22:25:14.867Z,20.66
2023-07-06T22:28:17.743Z,20.59
2023-07-06T22:31:19.641Z,20.54
2023-07-06T22:34:23.835Z,20.47
2023-07-06T22:37:25.981Z,20.31
2023-07-06T22:40:31.149Z,20.47
2023-07-06T22:43:33.060Z,20.40
2023-07-06T22:46:35.096Z,20.39
2023-07-06T22:49:40.568Z,20.26
2023-07-06T22:52:42.441Z,20.23
2023-07-06T22:55:44.660Z,20.10
2023-07-06T22:58:46.629Z,20.10
2023-07-06T23:01:49.404Z,19.96
2023-07-06T23:04:52.759Z,20.03
2023-07-06T23:07:57.108Z,19.99
2023-07-06T23:10:59.502Z,19.56
2023-07-06T23:14:02.314Z,20.00
2023-07-06T23:17:04.749Z,20.03
2023-07-06T23:20:09.565Z,20.09
2023-07-06T23:23:12.320Z,19.98
2023-07-06T23:26:16.528Z,20.15
2023-07-06T23:29:18.631Z,20.03
2023-07-06T23:32:22.892Z,19.95
2023-07-06T23:35:26.225Z,20.07
2023-07-06T23:38:28.068Z,20.08
2023-07-06T23:41:30.641Z,19.92
2023-07-06T23:44:32.545Z,19.97
2023-07-06T23:47:35.533Z,19.86
2023-07-06T23:50:38.821Z,19.97
2023-07-06T23:53:41.260Z,19.96
2023-07-06T23:56:43.128Z,19.91
2023-07-06T23:59:45.351Z,19.95
